Time;durP1;ratioP1;P1;durP2;ratioP2;P2;SDS_P1;SDS_P2;PMS_P1;PMS_P2;Temp;Humidity;BMP_temperature;BMP_pressure;BME280_temperature;BME280_humidity;BME280_pressure;Samples;Min_cycle;Max_cycle;Signal;HPM_P1;HPM_P2
2023/07/30 00:01:45;;;;;;;30.88;5.72;;;;;;;;;;5054864;28;20029;-76
2023/07/30 00:04:11;;;;;;;31.45;5.45;;;;;;;;;;5054829;28;20060;-76
2023/07/30 00:06:37;;;;;;;27.55;5.85;;;;;;;;;;5054810;28;20470;-76
2023/07/30 00:09:03;;;;;;;27.63;5.88;;;;;;;;;;5054706;28;20037;-76
2023/07/30 00:11:29;;;;;;;25.42;5.30;;;;;;;;;;5053382;28;20392;-76
2023/07/30 00:13:56;;;;;;;26.35;6.18;;;;;;;;;;5054711;28;20028;-76
2023/07/30 00:16:22;;;;;;;28.52;5.68;;;;;;;;;;5054639;28;20100;-76
2023/07/30 00:18:48;;;;;;;23.23;6.13;;;;;;;;;;5054552;28;20416;-76
2023/07/30 00:21:14;;;;;;;21.75;4.70;;;;;;;;;;5054528;28;20112;-76
2023/07/30 00:23:40;;;;;;;26.20;4.93;;;;;;;;;;5054453;28;20113;-76
2023/07/30 00:26:06;;;;;;;23.42;4.00;;;;;;;;;;5054354;28;20025;-76
2023/07/30 00:28:32;;;;;;;19.00;4.82;;;;;;;;;;5054421;28;20064;-76
2023/07/30 00:30:58;;;;;;;28.85;5.72;;;;;;;;;;5054400;28;20423;-76
2023/07/30 00:33:24;;;;;;;18.88;4.70;;;;;;;;;;5054283;28;20021;-76
2023/07/30 00:35:52;;;;;;;27.30;5.05;;;;;;;;;;5054518;28;20060;-76
2023/07/30 00:38:18;;;;;;;24.02;5.05;;;;;;;;;;5054517;28;20033;-76
2023/07/30 00:40:44;;;;;;;28.27;5.35;;;;;;;;;;5054404;28;20049;-76
2023/07/30 00:43:10;;;;;;;23.60;5.18;;;;;;;;;;5054065;28;20021;-76
2023/07/30 00:45:38;;;;;;;26.67;4.90;;;;;;;;;;5054036;28;20032;-77
2023/07/30 00:48:05;;;;;;;23.27;5.55;;;;;;;;;;5053895;28;20460;-76
2023/07/30 00:50:31;;;;;;;18.20;4.72;;;;;;;;;;5054215;28;20025;-76
2023/07/30 00:52:57;;;;;;;21.77;4.55;;;;;;;;;;5053970;28;20025;-76
2023/07/30 00:55:24;;;;;;;18.70;4.32;;;;;;;;;;5053853;28;20013;-76
2023/07/30 00:57:50;;;;;;;25.38;4.95;;;;;;;;;;5054053;28;20083;-76
2023/07/30 01:00:16;;;;;;;20.42;4.50;;;;;;;;;;5053565;28;20087;-76
2023/07/30 01:02:42;;;;;;;19.02;4.03;;;;;;;;;;5053854;28;20025;-76
2023/07/30 01:05:08;;;;;;;16.98;4.30;;;;;;;;;;5053791;28;20591;-76
2023/07/30 01:07:35;;;;;;;16.98;4.45;;;;;;;;;;5053805;28;20029;-76
2023/07/30 01:10:01;;;;;;;15.07;4.45;;;;;;;;;;5052268;28;20505;-76
2023/07/30 01:12:29;;;;;;;21.48;5.03;;;;;;;;;;5053621;28;20078;-76
2023/07/30 01:14:56;;;;;;;21.13;4.07;;;;;;;;;;5053554;28;20083;-76
2023/07/30 01:17:22;;;;;;;23.25;4.35;;;;;;;;;;5053575;28;20498;-76
2023/07/30 01:19:49;;;;;;;28.48;4.97;;;;;;;;;;5053381;28;20028;-76
2023/07/30 01:22:15;;;;;;;23.63;4.35;;;;;;;;;;5053688;28;20020;-77
2023/07/30 01:24:41;;;;;;;20.25;4.45;;;;;;;;;;5053325;28;20021;-76
2023/07/30 01:27:08;;;;;;;21.08;4.13;;;;;;;;;;5053245;28;20056;-76
2023/07/30 01:29:42;;;;;;;16.55;4.60;;;;;;;;;;5053160;28;20490;-76
2023/07/30 01:32:09;;;;;;;27.35;4.97;;;;;;;;;;5053184;28;20041;-76
2023/07/30 01:34:36;;;;;;;18.90;4.25;;;;;;;;;;5053101;28;20070;-76
2023/07/30 01:37:02;;;;;;;27.77;4.75;;;;;;;;;;5053055;28;20029;-76
2023/07/30 01:39:28;;;;;;;18.75;4.22;;;;;;;;;;5053019;28;20048;-76
2023/07/30 01:41:55;;;;;;;23.25;4.57;;;;;;;;;;5052949;28;20337;-76
2023/07/30 01:44:22;;;;;;;18.08;4.38;;;;;;;;;;5052939;28;20078;-76
2023/07/30 01:46:50;;;;;;;23.77;4.57;;;;;;;;;;5052852;28;20025;-76
2023/07/30 01:49:16;;;;;;;16.88;4.03;;;;;;;;;;5052780;28;20036;-76
2023/07/30 01:51:42;;;;;;;19.55;4.07;;;;;;;;;;5052803;28;20028;-76
2023/07/30 01:54:08;;;;;;;19.40;4.50;;;;;;;;;;5052713;28;20021;-76
2023/07/30 01:56:35;;;;;;;22.23;5.07;;;;;;;;;;5052724;28;20403;-76
2023/07/30 01:59:01;;;;;;;21.35;4.53;;;;;;;;;;5052831;28;20029;-76
2023/07/30 02:01:27;;;;;;;20.08;4.75;;;;;;;;;;5052720;28;20036;-77
2023/07/30 02:03:53;;;;;;;23.90;4.57;;;;;;;;;;5052649;28;20021;-76
2023/07/30 02:06:19;;;;;;;21.95;4.28;;;;;;;;;;5052598;28;20521;-76
2023/07/30 02:08:45;;;;;;;20.13;4.63;;;;;;;;;;5052491;28;20029;-76
2023/07/30 02:11:11;;;;;;;22.40;4.65;;;;;;;;;;5051725;28;20072;-76
2023/07/30 02:13:37;;;;;;;16.63;3.85;;;;;;;;;;5052795;28;20025;-76
2023/07/30 02:16:03;;;;;;;20.60;4.30;;;;;;;;;;5052518;28;20073;-76
2023/07/30 02:18:29;;;;;;;19.88;4.40;;;;;;;;;;5052502;28;20044;-77
2023/07/30 02:20:55;;;;;;;21.08;5.03;;;;;;;;;;5052486;28;20025;-76
2023/07/30 02:23:21;;;;;;;16.67;3.50;;;;;;;;;;5052510;28;20029;-76
2023/07/30 02:25:47;;;;;;;15.88;4.03;;;;;;;;;;5052757;28;20155;-76
2023/07/30 02:28:13;;;;;;;15.60;3.20;;;;;;;;;;5052313;28;20032;-76
2023/07/30 02:30:39;;;;;;;14.75;2.97;;;;;;;;;;5052274;28;20025;-76
2023/07/30 02:33:05;;;;;;;15.65;3.38;;;;;;;;;;5052285;28;20524;-76
2023/07/30 02:35:31;;;;;;;16.85;3.25;;;;;;;;;;5052243;28;20108;-76
2023/07/30 02:37:57;;;;;;;11.57;2.60;;;;;;;;;;5052176;28;20027;-76
2023/07/30 02:40:23;;;;;;;13.20;3.10;;;;;;;;;;5052499;28;20112;-76
2023/07/30 02:42:49;;;;;;;17.13;3.42;;;;;;;;;;5052243;28;20142;-76
2023/07/30 02:45:15;;;;;;;15.27;2.67;;;;;;;;;;5052170;28;20036;-76
2023/07/30 02:47:41;;;;;;;14.93;2.80;;;;;;;;;;5052529;28;20043;-76
2023/07/30 02:50:09;;;;;;;18.05;3.22;;;;;;;;;;5052042;28;20415;-76
2023/07/30 02:52:35;;;;;;;15.10;3.13;;;;;;;;;;5052087;28;20021;-76
2023/07/30 02:55:01;;;;;;;11.15;2.20;;;;;;;;;;5052082;28;20113;-76
2023/07/30 02:57:27;;;;;;;11.73;2.47;;;;;;;;;;5052125;28;20024;-76
2023/07/30 02:59:53;;;;;;;12.80;2.65;;;;;;;;;;5052060;28;20431;-76
2023/07/30 03:02:19;;;;;;;10.05;2.78;;;;;;;;;;5052062;28;20021;-76
2023/07/30 03:04:45;;;;;;;10.23;2.20;;;;;;;;;;5052305;28;20113;-76
2023/07/30 03:07:11;;;;;;;7.03;2.00;;;;;;;;;;5052118;28;20090;-76
2023/07/30 03:09:37;;;;;;;7.00;1.70;;;;;;;;;;5050855;28;20041;-77
2023/07/30 03:12:03;;;;;;;7.97;2.08;;;;;;;;;;5051998;28;20391;-76
2023/07/30 03:14:29;;;;;;;6.07;1.85;;;;;;;;;;5051968;28;20091;-76
2023/07/30 03:16:55;;;;;;;10.48;1.75;;;;;;;;;;5051895;28;20028;-76
2023/07/30 03:19:21;;;;;;;5.38;1.40;;;;;;;;;;5051936;28;20108;-77
2023/07/30 03:21:47;;;;;;;5.50;1.55;;;;;;;;;;5051909;28;20635;-76
2023/07/30 03:24:13;;;;;;;7.88;1.33;;;;;;;;;;5055483;28;20025;-76
2023/07/30 03:26:39;;;;;;;6.50;1.17;;;;;;;;;;5055576;28;20455;-76
2023/07/30 03:29:05;;;;;;;5.80;1.63;;;;;;;;;;5055501;28;20029;-76
2023/07/30 03:31:31;;;;;;;11.48;1.40;;;;;;;;;;5055450;28;20368;-76
2023/07/30 03:33:57;;;;;;;7.38;1.65;;;;;;;;;;5055756;28;20052;-76
2023/07/30 03:36:23;;;;;;;5.45;1.50;;;;;;;;;;5055377;28;20448;-76
2023/07/30 03:38:49;;;;;;;5.65;1.70;;;;;;;;;;5055315;28;20081;-76
2023/07/30 03:41:15;;;;;;;8.70;1.58;;;;;;;;;;5055259;28;20032;-76
2023/07/30 03:43:41;;;;;;;9.13;1.65;;;;;;;;;;5055181;28;20087;-76
2023/07/30 03:46:07;;;;;;;8.55;1.55;;;;;;;;;;5055248;28;20029;-76
2023/07/30 03:48:33;;;;;;;9.68;1.70;;;;;;;;;;5055070;28;20033;-76
2023/07/30 03:50:59;;;;;;;11.05;1.70;;;;;;;;;;5055132;28;20459;-76
2023/07/30 03:53:25;;;;;;;9.52;1.70;;;;;;;;;;5055308;28;20127;-77
2023/07/30 03:55:51;;;;;;;7.10;1.63;;;;;;;;;;5054934;28;20024;-76
2023/07/30 03:58:17;;;;;;;10.48;1.88;;;;;;;;;;5055051;28;20051;-76
2023/07/30 04:00:43;;;;;;;9.15;1.63;;;;;;;;;;5054952;28;20025;-76
2023/07/30 04:03:09;;;;;;;10.40;1.70;;;;;;;;;;5054907;28;20578;-76
2023/07/30 04:05:35;;;;;;;9.27;2.08;;;;;;;;;;5055338;28;20033;-76
2023/07/30 04:08:01;;;;;;;8.48;2.30;;;;;;;;;;5054786;28;20112;-76
2023/07/30 04:10:27;;;;;;;6.88;1.75;;;;;;;;;;5054265;28;20060;-76
2023/07/30 04:12:54;;;;;;;10.73;2.17;;;;;;;;;;5054649;28;20021;-76
2023/07/30 04:15:20;;;;;;;8.85;1.77;;;;;;;;;;5054694;28;20107;-76
2023/07/30 04:17:46;;;;;;;7.13;1.70;;;;;;;;;;5054719;28;20035;-76
2023/07/30 04:20:12;;;;;;;8.20;1.80;;;;;;;;;;5054592;28;20025;-76
2023/07/30 04:22:38;;;;;;;11.07;1.88;;;;;;;;;;5054792;28;20021;-76
2023/07/30 04:25:04;;;;;;;6.93;2.15;;;;;;;;;;5054757;28;20109;-76
2023/07/30 04:27:30;;;;;;;13.45;1.88;;;;;;;;;;5054319;28;20368;-76
2023/07/30 04:29:56;;;;;;;11.02;2.00;;;;;;;;;;5054294;28;20491;-76
2023/07/30 04:32:22;;;;;;;6.90;2.20;;;;;;;;;;5054326;28;20025;-76
2023/07/30 04:34:48;;;;;;;8.57;2.17;;;;;;;;;;5053799;28;20028;-76
2023/07/30 04:37:14;;;;;;;6.68;1.50;;;;;;;;;;5054207;28;20490;-76
2023/07/30 04:39:40;;;;;;;12.93;1.88;;;;;;;;;;5054169;28;20116;-76
2023/07/30 04:42:06;;;;;;;11.18;2.45;;;;;;;;;;5054109;28;20345;-76
2023/07/30 04:44:32;;;;;;;9.32;2.33;;;;;;;;;;5054238;28;20500;-76
2023/07/30 04:46:58;;;;;;;9.55;1.77;;;;;;;;;;5053934;28;20025;-76
2023/07/30 04:49:24;;;;;;;9.82;1.90;;;;;;;;;;5053781;28;20483;-76
2023/07/30 04:51:50;;;;;;;11.45;2.00;;;;;;;;;;5053907;28;20036;-76
2023/07/30 04:54:16;;;;;;;11.88;1.90;;;;;;;;;;5053270;28;20103;-77
2023/07/30 04:56:43;;;;;;;9.63;1.40;;;;;;;;;;5053305;28;20044;-76
2023/07/30 04:59:09;;;;;;;8.20;1.58;;;;;;;;;;5053213;28;20021;-76
2023/07/30 05:01:35;;;;;;;10.18;2.00;;;;;;;;;;5053852;28;20452;-76
2023/07/30 05:04:01;;;;;;;7.53;1.70;;;;;;;;;;5053789;28;20040;-76
2023/07/30 05:06:27;;;;;;;9.88;2.15;;;;;;;;;;5053960;28;20025;-76
2023/07/30 05:08:54;;;;;;;9.18;1.90;;;;;;;;;;5053553;28;20029;-76
2023/07/30 05:11:20;;;;;;;9.30;2.00;;;;;;;;;;5052329;28;20049;-76
2023/07/30 05:13:46;;;;;;;11.52;2.03;;;;;;;;;;5053588;28;20025;-76
2023/07/30 05:16:12;;;;;;;6.50;1.85;;;;;;;;;;5053535;28;20452;-76
2023/07/30 05:18:38;;;;;;;7.88;2.03;;;;;;;;;;5053480;28;20110;-76
2023/07/30 05:21:04;;;;;;;9.98;1.90;;;;;;;;;;5053433;28;20360;-77
2023/07/30 05:23:30;;;;;;;9.85;2.00;;;;;;;;;;5053344;28;20057;-76
2023/07/30 05:25:56;;;;;;;7.03;1.65;;;;;;;;;;5053686;28;20049;-77
2023/07/30 05:28:22;;;;;;;8.50;1.80;;;;;;;;;;5053229;28;20513;-76
2023/07/30 05:30:48;;;;;;;7.72;2.08;;;;;;;;;;5053235;28;20021;-76
2023/07/30 05:33:14;;;;;;;7.22;1.92;;;;;;;;;;5053282;28;20036;-76
2023/07/30 05:35:40;;;;;;;9.98;1.98;;;;;;;;;;5053265;28;20036;-76
2023/07/30 05:38:06;;;;;;;5.93;1.95;;;;;;;;;;5053155;28;20464;-76
2023/07/30 05:40:32;;;;;;;7.35;1.63;;;;;;;;;;5053588;28;20096;-76
2023/07/30 05:43:00;;;;;;;9.10;1.98;;;;;;;;;;5053291;28;20033;-76
2023/07/30 05:45:26;;;;;;;11.77;2.45;;;;;;;;;;5052960;28;20631;-76
2023/07/30 05:47:52;;;;;;;8.35;2.30;;;;;;;;;;5052559;28;20025;-76
2023/07/30 05:50:18;;;;;;;8.65;1.88;;;;;;;;;;5052849;28;20071;-76
2023/07/30 05:52:44;;;;;;;10.27;2.40;;;;;;;;;;5052907;28;20116;-77
2023/07/30 05:55:10;;;;;;;10.75;2.47;;;;;;;;;;5052527;28;20664;-76
2023/07/30 05:57:37;;;;;;;10.02;2.05;;;;;;;;;;5052759;28;20452;-76
2023/07/30 06:00:03;;;;;;;11.88;2.47;;;;;;;;;;5052749;28;20033;-76
2023/07/30 06:02:29;;;;;;;7.97;1.60;;;;;;;;;;5053044;28;20052;-76
2023/07/30 06:04:55;;;;;;;9.77;2.00;;;;;;;;;;5052656;28;20467;-76
2023/07/30 06:07:21;;;;;;;7.07;1.83;;;;;;;;;;5052797;28;20495;-76
2023/07/30 06:09:47;;;;;;;8.32;1.80;;;;;;;;;;5051181;28;20026;-76
2023/07/30 06:12:13;;;;;;;9.43;1.85;;;;;;;;;;5052566;28;20035;-76
2023/07/30 06:14:39;;;;;;;8.07;2.40;;;;;;;;;;5052524;28;20075;-76
2023/07/30 06:17:05;;;;;;;8.82;1.73;;;;;;;;;;5052482;28;20025;-77
2023/07/30 06:19:31;;;;;;;7.25;1.58;;;;;;;;;;5052487;28;20056;-77
2023/07/30 06:21:58;;;;;;;10.63;1.95;;;;;;;;;;5052679;28;20372;-77
2023/07/30 06:24:25;;;;;;;10.43;2.10;;;;;;;;;;5052477;28;20060;-77
2023/07/30 06:26:51;;;;;;;6.07;1.42;;;;;;;;;;5052389;28;20511;-76
2023/07/30 06:29:17;;;;;;;8.45;1.60;;;;;;;;;;5052550;28;20056;-76
2023/07/30 06:31:43;;;;;;;7.93;1.83;;;;;;;;;;5052369;28;20061;-77
2023/07/30 06:34:09;;;;;;;7.30;1.92;;;;;;;;;;5052420;28;20025;-77
2023/07/30 06:36:35;;;;;;;9.32;1.63;;;;;;;;;;5052328;28;20048;-77
2023/07/30 06:39:01;;;;;;;11.38;1.88;;;;;;;;;;5052299;28;20025;-77
2023/07/30 06:41:28;;;;;;;11.38;2.40;;;;;;;;;;5052267;28;20108;-77
2023/07/30 06:43:54;;;;;;;11.48;2.05;;;;;;;;;;5052626;28;20029;-77
2023/07/30 06:46:26;;;;;;;8.27;1.95;;;;;;;;;;5052309;28;20036;-77
2023/07/30 06:48:52;;;;;;;8.45;1.90;;;;;;;;;;5052251;28;20078;-77
2023/07/30 06:51:24;;;;;;;9.18;1.80;;;;;;;;;;5052157;28;20383;-77
2023/07/30 06:53:50;;;;;;;7.28;1.50;;;;;;;;;;5052036;28;20380;-77
2023/07/30 06:56:16;;;;;;;11.02;1.60;;;;;;;;;;5052113;28;20376;-77
2023/07/30 06:58:42;;;;;;;6.55;1.23;;;;;;;;;;5055400;28;20029;-77
2023/07/30 07:01:08;;;;;;;7.40;1.73;;;;;;;;;;5056100;28;20021;-77
2023/07/30 07:03:34;;;;;;;6.25;1.40;;;;;;;;;;5056027;28;20039;-77
2023/07/30 07:06:01;;;;;;;6.88;1.60;;;;;;;;;;5056181;28;20029;-76
2023/07/30 07:08:27;;;;;;;7.43;1.50;;;;;;;;;;5055986;28;20028;-77
2023/07/30 07:10:53;;;;;;;9.23;2.05;;;;;;;;;;5054752;28;20056;-77
2023/07/30 07:13:19;;;;;;;7.50;1.55;;;;;;;;;;5055824;28;20645;-77
2023/07/30 07:15:45;;;;;;;7.63;1.80;;;;;;;;;;5055794;28;20052;-77
2023/07/30 07:18:17;;;;;;;6.22;1.50;;;;;;;;;;5055808;28;20037;-77
2023/07/30 07:20:43;;;;;;;6.00;1.83;;;;;;;;;;5055797;28;20527;-77
2023/07/30 07:23:09;;;;;;;8.93;1.52;;;;;;;;;;5055638;28;20021;-77
2023/07/30 07:25:37;;;;;;;9.32;2.22;;;;;;;;;;5055602;28;20094;-77
2023/07/30 07:28:03;;;;;;;10.20;1.85;;;;;;;;;;5054312;28;20052;-77
2023/07/30 07:30:29;;;;;;;11.65;2.17;;;;;;;;;;5055390;28;20068;-77
2023/07/30 07:32:55;;;;;;;6.10;1.75;;;;;;;;;;5055572;28;20056;-77
2023/07/30 07:35:21;;;;;;;10.15;1.80;;;;;;;;;;5055775;28;20047;-76
2023/07/30 07:37:47;;;;;;;7.35;1.98;;;;;;;;;;5055393;28;20017;-77
2023/07/30 07:40:13;;;;;;;6.53;1.80;;;;;;;;;;5055268;28;20039;-77
2023/07/30 07:42:39;;;;;;;7.05;2.00;;;;;;;;;;5055336;28;20086;-77
2023/07/30 07:45:06;;;;;;;6.43;1.52;;;;;;;;;;5055215;28;20033;-76
2023/07/30 07:47:32;;;;;;;9.88;1.77;;;;;;;;;;5055299;28;20364;-77
2023/07/30 07:49:58;;;;;;;6.53;1.58;;;;;;;;;;5055122;28;20471;-77
2023/07/30 07:52:24;;;;;;;7.65;2.13;;;;;;;;;;5055169;28;20035;-77
2023/07/30 07:54:50;;;;;;;7.18;1.65;;;;;;;;;;5055305;28;20056;-77
2023/07/30 07:57:16;;;;;;;15.82;2.63;;;;;;;;;;5054973;28;20529;-77
2023/07/30 07:59:44;;;;;;;9.55;1.80;;;;;;;;;;5055018;28;20029;-77
2023/07/30 08:02:11;;;;;;;8.52;1.63;;;;;;;;;;5055266;28;20025;-77
2023/07/30 08:04:37;;;;;;;5.25;1.63;;;;;;;;;;5054916;28;20020;-76
2023/07/30 08:07:03;;;;;;;4.75;1.50;;;;;;;;;;5054854;28;20104;-76
2023/07/30 08:09:30;;;;;;;10.23;1.77;;;;;;;;;;5053775;28;20059;-77
2023/07/30 08:11:56;;;;;;;7.18;1.85;;;;;;;;;;5053902;28;20078;-77
2023/07/30 08:14:22;;;;;;;5.32;1.58;;;;;;;;;;5054672;28;20108;-76
2023/07/30 08:16:48;;;;;;;9.00;1.88;;;;;;;;;;5054665;28;20364;-76
2023/07/30 08:19:14;;;;;;;9.93;2.30;;;;;;;;;;5054697;28;20078;-77
2023/07/30 08:21:40;;;;;;;7.97;1.75;;;;;;;;;;5054611;28;20021;-77
2023/07/30 08:24:06;;;;;;;8.60;2.00;;;;;;;;;;5054616;28;20484;-77
2023/07/30 08:26:32;;;;;;;7.78;1.55;;;;;;;;;;5054847;28;20036;-77
2023/07/30 08:28:59;;;;;;;5.60;1.42;;;;;;;;;;5054809;28;20036;-77
2023/07/30 08:31:25;;;;;;;5.57;1.40;;;;;;;;;;5054568;28;20025;-77
2023/07/30 08:33:51;;;;;;;7.30;1.73;;;;;;;;;;5054677;28;20037;-77
2023/07/30 08:36:17;;;;;;;8.23;1.75;;;;;;;;;;5054888;28;20372;-77
2023/07/30 08:38:43;;;;;;;8.23;1.70;;;;;;;;;;5054258;28;20057;-77
2023/07/30 08:41:09;;;;;;;8.88;1.63;;;;;;;;;;5054365;28;20553;-77
2023/07/30 08:43:35;;;;;;;6.88;1.75;;;;;;;;;;5054318;28;20028;-77
2023/07/30 08:46:01;;;;;;;8.30;1.90;;;;;;;;;;5054326;28;20025;-77
2023/07/30 08:48:28;;;;;;;9.30;2.35;;;;;;;;;;5054242;28;20021;-77
2023/07/30 08:50:57;;;;;;;9.00;1.80;;;;;;;;;;5054337;28;20017;-77
2023/07/30 08:53:26;;;;;;;6.32;1.98;;;;;;;;;;5054418;28;20585;-77
2023/07/30 08:55:52;;;;;;;6.00;1.23;;;;;;;;;;5052896;28;20040;-77
2023/07/30 08:58:18;;;;;;;6.35;1.95;;;;;;;;;;5053982;28;20103;-77
2023/07/30 09:00:45;;;;;;;6.70;1.25;;;;;;;;;;5053880;28;20082;-77
2023/07/30 09:03:15;;;;;;;10.35;1.42;;;;;;;;;;5053983;28;20037;-77
2023/07/30 09:05:41;;;;;;;;;;;;;;;;;;5054604;28;20028;-77
2023/07/30 09:08:08;;;;;;;5.68;1.55;;;;;;;;;;5053772;28;20237;-77
2023/07/30 09:10:34;;;;;;;8.50;1.52;;;;;;;;;;5052525;28;20053;-77
2023/07/30 09:13:00;;;;;;;10.77;1.48;;;;;;;;;;5053773;28;20609;-77
2023/07/30 09:15:37;;;;;;;6.18;2.15;;;;;;;;;;5053827;28;20025;-77
2023/07/30 09:18:03;;;;;;;8.13;1.58;;;;;;;;;;5053929;28;20021;-77
2023/07/30 09:20:36;;;;;;;6.82;1.52;;;;;;;;;;5053458;28;20025;-77
2023/07/30 09:23:02;;;;;;;7.60;1.55;;;;;;;;;;5053628;28;20044;-77
2023/07/30 09:25:28;;;;;;;7.38;1.67;;;;;;;;;;5053462;28;20020;-77
2023/07/30 09:27:56;;;;;;;4.35;1.30;;;;;;;;;;5053303;28;20036;-77
2023/07/30 09:30:23;;;;;;;6.47;1.50;;;;;;;;;;5053440;28;20029;-77
2023/07/30 09:32:52;;;;;;;7.22;1.50;;;;;;;;;;5053171;28;20535;-77
2023/07/30 09:35:18;;;;;;;7.73;1.57;;;;;;;;;;5053506;28;20053;-77
2023/07/30 09:37:44;;;;;;;4.22;1.35;;;;;;;;;;5053672;28;20021;-77
2023/07/30 09:40:14;;;;;;;7.50;1.52;;;;;;;;;;5053216;28;20487;-77
2023/07/30 09:42:44;;;;;;;9.82;2.15;;;;;;;;;;5053080;28;20032;-77
2023/07/30 09:45:23;;;;;;;5.15;1.10;;;;;;;;;;5053082;28;20024;-77
2023/07/30 09:47:50;;;;;;;8.05;1.50;;;;;;;;;;5053046;28;20028;-77
2023/07/30 09:50:16;;;;;;;9.13;2.03;;;;;;;;;;5052884;28;20112;-77
2023/07/30 09:52:43;;;;;;;7.65;2.20;;;;;;;;;;5052825;28;20033;-77
2023/07/30 09:55:09;;;;;;;8.55;1.55;;;;;;;;;;5052811;28;20021;-77
2023/07/30 09:57:36;;;;;;;7.93;2.15;;;;;;;;;;5052876;28;20464;-77
2023/07/30 10:00:03;;;;;;;8.70;1.58;;;;;;;;;;5051479;28;20029;-77
2023/07/30 10:02:31;;;;;;;4.97;1.15;;;;;;;;;;5052987;28;20087;-77
2023/07/30 10:04:57;;;;;;;7.85;1.85;;;;;;;;;;5053023;28;20017;-77
2023/07/30 10:07:24;;;;;;;5.25;1.42;;;;;;;;;;5052946;28;20391;-77
2023/07/30 10:09:53;;;;;;;7.20;1.70;;;;;;;;;;5052565;28;20029;-77
2023/07/30 10:12:22;;;;;;;9.23;1.60;;;;;;;;;;5051277;28;20073;-77
2023/07/30 10:14:48;;;;;;;4.93;1.23;;;;;;;;;;5052594;28;20024;-77
2023/07/30 10:17:14;;;;;;;9.00;1.88;;;;;;;;;;5051230;28;20033;-77
2023/07/30 10:19:40;;;;;;;6.22;1.63;;;;;;;;;;5052502;28;20029;-77
2023/07/30 10:22:12;;;;;;;7.75;1.90;;;;;;;;;;5052468;28;20083;-77
2023/07/30 10:24:38;;;;;;;5.50;1.55;;;;;;;;;;5052402;28;20021;-77
2023/07/30 10:27:07;;;;;;;6.28;1.25;;;;;;;;;;5052424;28;20028;-77
2023/07/30 10:29:33;;;;;;;;;;;;;;;;;;5052713;28;20483;-77
2023/07/30 10:32:00;;;;;;;7.07;1.70;;;;;;;;;;5051844;28;19911;-77
2023/07/30 10:34:27;;;;;;;6.47;1.80;;;;;;;;;;5052447;28;20021;-77
2023/07/30 10:36:55;;;;;;;8.23;1.75;;;;;;;;;;5052365;28;20037;-77
2023/07/30 10:39:26;;;;;;;7.28;1.67;;;;;;;;;;5052272;28;20460;-77
2023/07/30 10:41:55;;;;;;;6.28;1.88;;;;;;;;;;5052352;28;20060;-77
2023/07/30 10:44:25;;;;;;;7.85;1.63;;;;;;;;;;5052284;28;20094;-77
2023/07/30 10:46:55;;;;;;;7.88;1.70;;;;;;;;;;5052336;28;20029;-77
2023/07/30 10:49:21;;;;;;;7.97;1.60;;;;;;;;;;5052130;28;20131;-77
2023/07/30 10:51:47;;;;;;;4.20;1.10;;;;;;;;;;5052215;28;20025;-77
2023/07/30 10:54:13;;;;;;;6.35;1.63;;;;;;;;;;5052095;28;20044;-77
2023/07/30 10:56:40;;;;;;;8.48;1.60;;;;;;;;;;5052160;28;20028;-77
2023/07/30 10:59:07;;;;;;;6.78;1.38;;;;;;;;;;5052199;28;20017;-77
2023/07/30 11:01:36;;;;;;;5.85;1.20;;;;;;;;;;5052087;28;20017;-77
2023/07/30 11:04:05;;;;;;;8.82;1.48;;;;;;;;;;5052145;28;20031;-77
2023/07/30 11:06:38;;;;;;;5.30;1.50;;;;;;;;;;5052027;28;20029;-77
2023/07/30 11:09:05;;;;;;;6.60;1.48;;;;;;;;;;5051967;28;20032;-77
2023/07/30 11:11:31;;;;;;;4.60;1.15;;;;;;;;;;5050713;28;20133;-77
2023/07/30 11:13:58;;;;;;;4.82;1.50;;;;;;;;;;5051914;28;20028;-77
2023/07/30 11:16:25;;;;;;;5.15;1.30;;;;;;;;;;5051959;28;20548;-77
2023/07/30 11:18:51;;;;;;;8.98;1.83;;;;;;;;;;5052127;28;20112;-77
2023/07/30 11:21:18;;;;;;;7.28;1.30;;;;;;;;;;5052175;28;20120;-77
2023/07/30 11:23:45;;;;;;;6.63;1.42;;;;;;;;;;5051890;28;20027;-77
2023/07/30 11:26:18;;;;;;;4.47;1.30;;;;;;;;;;5052203;28;20532;-77
2023/07/30 11:28:44;;;;;;;6.70;1.20;;;;;;;;;;5051929;28;20666;-77
2023/07/30 11:31:14;;;;;;;7.60;1.50;;;;;;;;;;5051765;28;20377;-76
2023/07/30 11:33:44;;;;;;;7.57;1.40;;;;;;;;;;5051811;28;20021;-77
2023/07/30 11:36:12;;;;;;;7.93;1.48;;;;;;;;;;5051760;28;20029;-77
2023/07/30 11:38:40;;;;;;;6.70;1.08;;;;;;;;;;5051738;28;20029;-77
2023/07/30 11:41:09;;;;;;;5.55;1.00;;;;;;;;;;5051948;28;20021;-77
2023/07/30 11:43:36;;;;;;;8.77;1.45;;;;;;;;;;5051964;28;20021;-77
2023/07/30 11:46:08;;;;;;;5.78;1.00;;;;;;;;;;5054842;28;20021;-77
2023/07/30 11:48:35;;;;;;;7.65;1.20;;;;;;;;;;5055219;28;20024;-77
2023/07/30 11:51:02;;;;;;;4.22;1.30;;;;;;;;;;5055164;28;20025;-77
2023/07/30 11:53:47;;;;;;;5.65;1.50;;;;;;;;;;5055159;28;20498;-77
2023/07/30 11:56:17;;;;;;;3.88;1.05;;;;;;;;;;5055191;28;20422;-78
2023/07/30 11:58:43;;;;;;;4.72;1.13;;;;;;;;;;5055192;28;20032;-77
2023/07/30 12:01:09;;;;;;;5.78;1.15;;;;;;;;;;5054831;28;20419;-77
2023/07/30 12:03:35;;;;;;;5.65;1.73;;;;;;;;;;5054978;28;20112;-77
2023/07/30 12:06:05;;;;;;;6.50;1.42;;;;;;;;;;5054942;28;20021;-77
2023/07/30 12:08:31;;;;;;;5.47;1.08;;;;;;;;;;5054856;28;20013;-77
2023/07/30 12:11:02;;;;;;;4.97;1.40;;;;;;;;;;5053332;28;20485;-77
2023/07/30 12:13:29;;;;;;;5.57;1.20;;;;;;;;;;5055163;28;20021;-77
2023/07/30 12:15:55;;;;;;;5.72;1.05;;;;;;;;;;5054951;28;20032;-77
2023/07/30 12:18:23;;;;;;;7.22;1.60;;;;;;;;;;5054699;28;20023;-77
2023/07/30 12:20:50;;;;;;;7.68;1.50;;;;;;;;;;5054904;28;20071;-77
2023/07/30 12:23:16;;;;;;;4.32;1.40;;;;;;;;;;5054602;28;20028;-77
2023/07/30 12:25:42;;;;;;;5.88;1.17;;;;;;;;;;5054492;28;20020;-77
2023/07/30 12:28:08;;;;;;;7.38;1.45;;;;;;;;;;5054361;28;20063;-77
2023/07/30 12:30:36;;;;;;;6.03;1.50;;;;;;;;;;5054281;28;20033;-77
2023/07/30 12:33:03;;;;;;;6.72;1.48;;;;;;;;;;5054725;28;20021;-77
2023/07/30 12:35:29;;;;;;;8.30;1.50;;;;;;;;;;5054310;28;20021;-77
2023/07/30 12:37:55;;;;;;;5.30;0.90;;;;;;;;;;5054514;28;20100;-77
2023/07/30 12:40:21;;;;;;;5.10;1.25;;;;;;;;;;5054273;28;20134;-77
2023/07/30 12:42:47;;;;;;;4.60;1.30;;;;;;;;;;5054094;28;20444;-77
2023/07/30 12:45:13;;;;;;;5.97;1.30;;;;;;;;;;5054316;28;20032;-77
2023/07/30 12:47:39;;;;;;;5.15;1.67;;;;;;;;;;5054147;28;20055;-77
2023/07/30 12:50:05;;;;;;;5.85;1.52;;;;;;;;;;5053969;28;20033;-77
2023/07/30 12:52:32;;;;;;;4.68;0.93;;;;;;;;;;5054090;28;20432;-77
2023/07/30 12:54:58;;;;;;;5.47;0.90;;;;;;;;;;5053642;28;20044;-77
2023/07/30 12:57:24;;;;;;;4.47;1.20;;;;;;;;;;5054009;28;20379;-77
2023/07/30 12:59:50;;;;;;;7.70;1.05;;;;;;;;;;5053795;28;20029;-77
2023/07/30 13:02:16;;;;;;;5.22;1.67;;;;;;;;;;5053898;28;20333;-77
2023/07/30 13:04:42;;;;;;;3.95;1.08;;;;;;;;;;5053806;28;20036;-77
2023/07/30 13:07:08;;;;;;;6.78;1.35;;;;;;;;;;5053815;28;20419;-77
2023/07/30 13:09:34;;;;;;;5.88;1.30;;;;;;;;;;5053988;28;20033;-77
2023/07/30 13:12:00;;;;;;;5.47;1.30;;;;;;;;;;5053208;28;20050;-77
2023/07/30 13:14:26;;;;;;;3.35;0.90;;;;;;;;;;5053548;28;20029;-77
2023/07/30 13:16:52;;;;;;;8.18;1.40;;;;;;;;;;5053529;28;20052;-77
2023/07/30 13:19:18;;;;;;;7.63;1.50;;;;;;;;;;5053523;28;20025;-77
2023/07/30 13:21:44;;;;;;;3.78;1.15;;;;;;;;;;5053432;28;20052;-77
2023/07/30 13:24:11;;;;;;;5.25;1.02;;;;;;;;;;5053373;28;20033;-77
2023/07/30 13:26:38;;;;;;;4.80;0.90;;;;;;;;;;5053323;28;20168;-76
2023/07/30 13:29:04;;;;;;;10.32;1.80;;;;;;;;;;5053596;28;20098;-77
2023/07/30 13:31:30;;;;;;;5.53;1.08;;;;;;;;;;5053630;28;20021;-77
2023/07/30 13:33:56;;;;;;;5.45;1.23;;;;;;;;;;5053252;28;20411;-77
2023/07/30 13:36:23;;;;;;;6.28;1.25;;;;;;;;;;5053199;28;20083;-77
2023/07/30 13:38:49;;;;;;;6.13;1.10;;;;;;;;;;5053091;28;20491;-77
2023/07/30 13:41:15;;;;;;;5.03;1.17;;;;;;;;;;5053437;28;20017;-77
2023/07/30 13:43:41;;;;;;;3.10;0.70;;;;;;;;;;5053174;28;20031;-77
2023/07/30 13:46:07;;;;;;;5.32;1.20;;;;;;;;;;5053270;28;20048;-77
2023/07/30 13:48:33;;;;;;;3.35;0.98;;;;;;;;;;5053034;28;20067;-77
2023/07/30 13:50:59;;;;;;;3.72;1.02;;;;;;;;;;5052903;28;20472;-77
2023/07/30 13:53:25;;;;;;;4.55;1.00;;;;;;;;;;5052896;28;20041;-77
2023/07/30 13:55:51;;;;;;;5.18;0.90;;;;;;;;;;5052920;28;20021;-77
2023/07/30 13:58:17;;;;;;;2.72;1.13;;;;;;;;;;5052869;28;20017;-77
2023/07/30 14:00:43;;;;;;;5.85;1.65;;;;;;;;;;5052849;28;20029;-77
2023/07/30 14:03:11;;;;;;;5.75;1.20;;;;;;;;;;5052809;28;20055;-77
2023/07/30 14:05:37;;;;;;;3.88;1.40;;;;;;;;;;5051454;28;20017;-76
2023/07/30 14:08:03;;;;;;;2.40;0.82;;;;;;;;;;5051941;28;20391;-77
2023/07/30 14:10:29;;;;;;;4.25;1.45;;;;;;;;;;5052567;28;20041;-77
2023/07/30 14:12:56;;;;;;;6.88;1.33;;;;;;;;;;5051244;28;20087;-77
2023/07/30 14:15:22;;;;;;;6.60;1.63;;;;;;;;;;5052632;28;20065;-77
2023/07/30 14:17:50;;;;;;;6.43;1.13;;;;;;;;;;5052640;28;20079;-77
2023/07/30 14:20:16;;;;;;;4.93;0.98;;;;;;;;;;5052543;28;20459;-77
2023/07/30 14:22:42;;;;;;;6.72;1.20;;;;;;;;;;5052477;28;20029;-77
2023/07/30 14:25:08;;;;;;;2.97;0.80;;;;;;;;;;5052462;28;20108;-77
2023/07/30 14:27:34;;;;;;;2.40;0.77;;;;;;;;;;5052465;28;20368;-77
2023/07/30 14:30:01;;;;;;;4.97;0.80;;;;;;;;;;5052307;28;20032;-77
2023/07/30 14:32:26;;;;;;;6.15;1.15;;;;;;;;;;5052677;28;20364;-77
2023/07/30 14:34:52;;;;;;;3.47;0.80;;;;;;;;;;5052259;28;20039;-77
2023/07/30 14:37:18;;;;;;;4.75;1.20;;;;;;;;;;5052270;28;20021;-77